createdAt,value
2022-08-18T00:02:30.495Z,97830.06
2022-08-18T00:04:58.402Z,97831.13
2022-08-18T00:07:30.250Z,97838.38
2022-08-18T00:09:58.371Z,97793.78
2022-08-18T00:12:26.985Z,97854.19
2022-08-18T00:14:55.169Z,97813.06
2022-08-18T00:17:22.525Z,97860.56
2022-08-18T00:19:49.801Z,97816.19
2022-08-18T00:22:20.689Z,97773.16
2022-08-18T00:24:53.701Z,97817.06
2022-08-18T00:27:24.735Z,97871.06
2022-08-18T00:29:58.186Z,97801.34
2022-08-18T00:32:47.477Z,97870.63
2022-08-18T00:35:17.514Z,97876.59
2022-08-18T00:37:45.035Z,97831.94
2022-08-18T00:40:15.782Z,97834.59
2022-08-18T00:42:58.142Z,97880.69
2022-08-18T00:45:32.218Z,97828.84
2022-08-18T00:47:59.712Z,97888.41
2022-08-18T00:50:37.184Z,97823.97
2022-08-18T00:53:25.062Z,97821.16
2022-08-18T00:55:54.485Z,97828.34
2022-08-18T00:58:29.400Z,97880.22
2022-08-18T01:00:56.917Z,97817.50
2022-08-18T01:03:24.964Z,97870.75
2022-08-18T01:05:52.114Z,97864.16
2022-08-18T01:08:28.712Z,97836.94
2022-08-18T01:10:58.904Z,97815.63
2022-08-18T01:13:29.440Z,97794.97
2022-08-18T01:15:57.103Z,97815.19
2022-08-18T01:18:23.720Z,97822.34
2022-08-18T01:21:11.784Z,97890.75
2022-08-18T01:23:39.650Z,97822.34
2022-08-18T01:26:06.657Z,97852.91
2022-08-18T01:28:37.518Z,97833.97
2022-08-18T01:31:05.579Z,97883.72
2022-08-18T01:33:38.184Z,97813.50
2022-08-18T01:36:11.219Z,97887.00
2022-08-18T01:38:38.077Z,97851.25
2022-08-18T01:41:26.782Z,97827.19
2022-08-18T01:43:51.869Z,97866.66
2022-08-18T01:46:22.539Z,97851.56
2022-08-18T01:48:49.252Z,97818.75
2022-08-18T01:51:16.963Z,97884.38
2022-08-18T01:53:43.656Z,97849.38
2022-08-18T01:56:10.198Z,97867.66
2022-08-18T01:58:36.992Z,97868.78
2022-08-18T02:01:04.835Z,97774.31
2022-08-18T02:03:39.228Z,97809.28
2022-08-18T02:06:11.436Z,97869.88
2022-08-18T02:08:43.549Z,97826.91
2022-08-18T02:11:10.989Z,97858.53
2022-08-18T02:13:37.683Z,97792.44
2022-08-18T02:16:04.618Z,97815.13
2022-08-18T02:18:48.009Z,97858.88
2022-08-18T02:21:19.850Z,97833.31
2022-08-18T02:23:53.401Z,97812.03
2022-08-18T02:26:21.018Z,97812.59
2022-08-18T02:28:47.644Z,97868.84
2022-08-18T02:31:18.654Z,97887.13
2022-08-18T02:33:51.709Z,97770.53
2022-08-18T02:36:20.583Z,97800.22
2022-08-18T02:38:54.763Z,97824.38
2022-08-18T02:41:26.648Z,97879.25
2022-08-18T02:43:56.060Z,97811.97
2022-08-18T02:46:22.835Z,97837.50
2022-08-18T02:48:50.167Z,97836.78
2022-08-18T02:51:17.187Z,97830.59
2022-08-18T02:53:46.143Z,97884.78
2022-08-18T02:56:19.723Z,97814.66
2022-08-18T02:59:08.294Z,97772.72
2022-08-18T03:01:38.013Z,97888.13
2022-08-18T03:04:06.745Z,97843.31
2022-08-18T03:06:35.546Z,97855.44
2022-08-18T03:09:05.593Z,97888.94
2022-08-18T03:11:32.204Z,97796.81
2022-08-18T03:13:59.149Z,97840.88
2022-08-18T03:16:25.880Z,97828.28
2022-08-18T03:18:53.434Z,97817.97
2022-08-18T03:21:25.544Z,97808.75
2022-08-18T03:24:00.764Z,97855.03
2022-08-18T03:26:30.072Z,97862.91
2022-08-18T03:28:57.840Z,97809.53
2022-08-18T03:31:25.451Z,97803.22
2022-08-18T03:33:59.233Z,97870.31
2022-08-18T03:36:29.880Z,97826.63
2022-08-18T03:38:56.557Z,97868.47
2022-08-18T03:41:56.790Z,97801.81
2022-08-18T03:47:10.348Z,97869.69
2022-08-18T03:49:37.748Z,97830.06
2022-08-18T03:52:07.533Z,97811.16
2022-08-18T03:54:34.238Z,97816.00
2022-08-18T03:57:01.449Z,97875.81
2022-08-18T03:59:29.033Z,97869.66
2022-08-18T04:01:55.738Z,97869.47
2022-08-18T04:04:26.216Z,97797.06
2022-08-18T04:06:57.015Z,97802.78
2022-08-18T04:09:25.532Z,97855.72
2022-08-18T04:11:52.245Z,97829.25
2022-08-18T04:14:22.066Z,97878.72
2022-08-18T04:16:48.732Z,97850.53
2022-08-18T04:19:23.095Z,97820.56
2022-08-18T04:21:54.428Z,97800.34
2022-08-18T04:24:21.450Z,97851.06
2022-08-18T04:26:49.125Z,97816.63
2022-08-18T04:29:18.361Z,97822.91
2022-08-18T04:31:45.573Z,97819.03
2022-08-18T04:34:12.320Z,97826.50
2022-08-18T04:36:39.881Z,97831.13
2022-08-18T04:39:09.447Z,97798.78
2022-08-18T04:41:37.650Z,97880.06
2022-08-18T04:44:07.135Z,97854.09
2022-08-18T04:46:42.915Z,97820.78
2022-08-18T04:49:11.088Z,97808.88
2022-08-18T04:52:36.588Z,97887.75
2022-08-18T04:54:30.128Z,97842.97
2022-08-18T04:56:56.887Z,97828.88
2022-08-18T04:59:23.522Z,97823.41
2022-08-18T05:01:50.155Z,97822.09
2022-08-18T05:04:17.877Z,97884.41
2022-08-18T05:06:45.717Z,97826.75
2022-08-18T05:09:16.504Z,97867.16
2022-08-18T05:11:44.133Z,97769.53
2022-08-18T05:14:11.523Z,97898.19
2022-08-18T05:16:48.079Z,97820.78
2022-08-18T05:19:20.121Z,97892.84
2022-08-18T05:21:51.380Z,97820.13
2022-08-18T05:24:19.109Z,97807.75
2022-08-18T05:26:46.315Z,97822.78
2022-08-18T05:29:18.373Z,97901.78
2022-08-18T05:31:46.925Z,97836.03
2022-08-18T05:34:13.598Z,97898.50
2022-08-18T05:36:49.375Z,97901.81
2022-08-18T05:39:24.444Z,97872.41
2022-08-18T05:41:51.119Z,97899.47
2022-08-18T05:44:30.622Z,97904.09
2022-08-18T05:47:07.017Z,97850.13
2022-08-18T05:49:35.851Z,97908.41
2022-08-18T05:52:08.603Z,97862.31
2022-08-18T05:54:49.985Z,97861.25
2022-08-18T05:57:21.720Z,97910.28
2022-08-18T05:59:52.417Z,97870.19
2022-08-18T06:03:06.988Z,97920.91
2022-08-18T06:05:40.949Z,97839.47
2022-08-18T06:08:13.485Z,97917.91
2022-08-18T06:10:48.372Z,97764.66
2022-08-18T06:13:15.577Z,97875.50
2022-08-18T06:15:48.250Z,97909.88
2022-08-18T06:18:31.183Z,97912.09
2022-08-18T06:21:26.594Z,97915.06
2022-08-18T06:24:25.251Z,97927.16
2022-08-18T06:27:04.770Z,97921.88
2022-08-18T06:29:57.923Z,97863.13
2022-08-18T06:32:44.866Z,97873.66
2022-08-18T06:35:30.408Z,97916.00
2022-08-18T06:38:03.023Z,97924.09
2022-08-18T06:40:29.686Z,97822.19
2022-08-18T06:42:56.385Z,97926.13
2022-08-18T06:45:34.009Z,97917.56
2022-08-18T06:48:23.575Z,97862.81
2022-08-18T06:50:58.212Z,97925.22
2022-08-18T06:53:50.387Z,97928.47
2022-08-18T06:56:34.463Z,97932.50
2022-08-18T06:59:26.199Z,97936.53
2022-08-18T07:02:22.708Z,97940.31
2022-08-18T07:05:08.534Z,97887.72
2022-08-18T07:07:40.346Z,97871.06
2022-08-18T07:10:30.732Z,97932.41
2022-08-18T07:13:28.444Z,97936.69
2022-08-18T07:16:15.806Z,97927.63
2022-08-18T07:18:44.054Z,97894.41
2022-08-18T07:21:33.954Z,97882.31
2022-08-18T07:24:23.899Z,97889.88
2022-08-18T07:27:11.166Z,97938.84
2022-08-18T07:29:57.939Z,97943.59
2022-08-18T07:32:32.457Z,97870.28
2022-08-18T07:35:02.279Z,97880.03
2022-08-18T07:37:48.918Z,97935.72
2022-08-18T07:40:35.185Z,97893.53
2022-08-18T07:43:17.735Z,97894.88
2022-08-18T07:45:47.086Z,97954.50
2022-08-18T07:48:39.765Z,97901.09
2022-08-18T07:51:19.850Z,97915.56
2022-08-18T07:54:02.581Z,97969.59
2022-08-18T07:56:41.427Z,97971.75
2022-08-18T07:59:16.633Z,97955.59
2022-08-18T08:02:17.398Z,97921.19
2022-08-18T08:05:15.134Z,97983.28
2022-08-18T08:07:59.622Z,97971.69
2022-08-18T08:10:26.259Z,97987.84
2022-08-18T08:13:19.368Z,97928.16
2022-08-18T08:16:22.511Z,97988.88
2022-08-18T08:19:12.197Z,97975.69
2022-08-18T08:21:53.818Z,97949.66
2022-08-18T08:24:32.056Z,97898.09
2022-08-18T08:27:06.076Z,97991.81
2022-08-18T08:29:44.900Z,97993.75
2022-08-18T08:32:15.917Z,97979.25
2022-08-18T08:34:54.264Z,97971.44
2022-08-18T08:37:58.399Z,97870.97
2022-08-18T08:40:30.544Z,97945.91
2022-08-18T08:43:02.767Z,97996.72
2022-08-18T08:45:33.908Z,97956.13
2022-08-18T08:48:17.021Z,97989.47
2022-08-18T08:50:49.890Z,97962.06
2022-08-18T08:53:23.493Z,97990.81
2022-08-18T08:55:58.836Z,97974.44
2022-08-18T08:58:34.721Z,98010.94
2022-08-18T09:01:02.356Z,97952.63
2022-08-18T09:03:33.607Z,97995.84
2022-08-18T09:06:00.309Z,98018.44
2022-08-18T09:08:46.521Z,98033.94
2022-08-18T09:11:33.649Z,97995.69
2022-08-18T09:14:15.545Z,98051.28
2022-08-18T09:16:45.172Z,98054.75
2022-08-18T09:19:36.509Z,98052.53
2022-08-18T09:22:33.907Z,98049.78
2022-08-18T09:25:01.184Z,98042.34
2022-08-18T09:28:09.985Z,98047.72
2022-08-18T09:30:43.003Z,98017.69
2022-08-18T09:33:21.988Z,98039.44
2022-08-18T09:36:23.538Z,98042.91
2022-08-18T09:38:58.888Z,98047.88
2022-08-18T09:41:31.393Z,98044.72
2022-08-18T09:44:08.548Z,97998.50
2022-08-18T09:46:50.500Z,98056.84
2022-08-18T09:49:24.199Z,98048.78
2022-08-18T09:51:58.897Z,98047.81
2022-08-18T09:54:32.189Z,97935.72
2022-08-18T09:57:05.271Z,98038.66
2022-08-18T09:59:38.433Z,98027.00
2022-08-18T10:02:31.614Z,98000.31
2022-08-18T10:05:19.022Z,98009.88
2022-08-18T10:08:13.555Z,97998.69
2022-08-18T10:11:23.789Z,98007.06
2022-08-18T10:14:09.644Z,98011.94
2022-08-18T10:17:23.965Z,97997.59
2022-08-18T10:20:05.397Z,97944.66
2022-08-18T10:22:48.358Z,97958.69
2022-08-18T10:25:34.974Z,97850.81
2022-08-18T10:28:02.294Z,97914.78
2022-08-18T10:30:31.056Z,97982.66
2022-08-18T10:33:17.215Z,97953.09
2022-08-18T10:36:03.160Z,97939.25
2022-08-18T10:38:45.843Z,97965.31
2022-08-18T10:41:30.752Z,97991.63
2022-08-18T10:44:00.003Z,97961.28
2022-08-18T10:46:34.374Z,97936.97
2022-08-18T10:49:15.857Z,97974.75
2022-08-18T10:52:00.608Z,97992.47
2022-08-18T10:57:35.273Z,97987.31
2022-08-18T11:00:20.390Z,97979.47
2022-08-18T11:03:02.423Z,97983.63
2022-08-18T11:05:41.564Z,97934.00
2022-08-18T11:11:34.401Z,97973.25
2022-08-18T11:14:07.756Z,97980.25
2022-08-18T11:17:07.067Z,97994.50
2022-08-18T11:19:54.226Z,97978.56
2022-08-18T11:22:32.545Z,97986.34
2022-08-18T11:25:03.907Z,97970.03
2022-08-18T11:27:35.151Z,97951.28
2022-08-18T11:30:06.362Z,97923.88
2022-08-18T11:35:32.741Z,97921.41
2022-08-18T11:38:12.550Z,97976.53
2022-08-18T11:41:10.565Z,97963.41
2022-08-18T11:43:41.463Z,97952.94
2022-08-18T11:46:14.301Z,97977.09
2022-08-18T11:51:34.207Z,97909.97
2022-08-18T11:54:19.736Z,97923.91
2022-08-18T11:56:46.464Z,97823.00
2022-08-18T11:59:25.580Z,97984.06
2022-08-18T12:02:20.900Z,97942.69
2022-08-18T12:05:02.930Z,97928.25
2022-08-18T12:07:35.816Z,97956.88
2022-08-18T12:10:18.987Z,97984.91
2022-08-18T12:12:53.964Z,97927.97
2022-08-18T12:15:46.841Z,97923.69
2022-08-18T12:18:25.990Z,97908.28
2022-08-18T12:20:58.597Z,97883.22
2022-08-18T12:23:25.500Z,97874.81
2022-08-18T12:25:52.201Z,97902.94
2022-08-18T12:28:22.363Z,97911.75
2022-08-18T12:30:57.146Z,97903.72
2022-08-18T12:33:47.826Z,97874.13
2022-08-18T12:36:13.575Z,97868.66
2022-08-18T12:38:43.222Z,97913.38
2022-08-18T12:41:09.993Z,97795.59
2022-08-18T12:43:36.553Z,97874.78
2022-08-18T12:46:04.897Z,97819.22
2022-08-18T12:48:31.508Z,97849.13
2022-08-18T12:50:59.833Z,97827.78
2022-08-18T12:53:29.890Z,97831.56
2022-08-18T12:56:27.642Z,97843.03
2022-08-18T12:58:54.364Z,97856.78
2022-08-18T13:01:23.384Z,97905.16
2022-08-18T13:06:54.045Z,97906.81
2022-08-18T13:09:42.917Z,97912.13
2022-08-18T13:12:16.765Z,97829.38
2022-08-18T13:14:44.125Z,97844.13
2022-08-18T13:17:33.124Z,97827.16
2022-08-18T13:20:13.470Z,97837.34
2022-08-18T13:22:40.730Z,97853.00
2022-08-18T13:25:10.831Z,97901.56
2022-08-18T13:27:39.325Z,97824.53
2022-08-18T13:30:29.365Z,97859.56
2022-08-18T13:33:06.137Z,97775.44
2022-08-18T13:35:52.467Z,97839.75
2022-08-18T13:38:27.090Z,97878.19
2022-08-18T13:40:58.744Z,97842.72
2022-08-18T13:43:39.447Z,97887.69
2022-08-18T13:46:09.249Z,97885.38
2022-08-18T13:48:37.815Z,97879.22
2022-08-18T13:51:06.641Z,97885.88
2022-08-18T13:53:50.532Z,97820.28
2022-08-18T13:56:31.477Z,97830.97
2022-08-18T13:58:58.687Z,97804.47
2022-08-18T14:01:44.490Z,97815.50
2022-08-18T14:04:15.084Z,97833.31
2022-08-18T14:06:51.071Z,97812.72
2022-08-18T14:09:36.703Z,97739.59
2022-08-18T14:12:23.354Z,97864.13
2022-08-18T14:14:55.219Z,97829.78
2022-08-18T14:17:24.360Z,97865.09
2022-08-18T14:19:53.529Z,97835.84
2022-08-18T14:22:22.955Z,97800.34
2022-08-18T14:24:52.106Z,97828.00
2022-08-18T14:27:24.079Z,97860.59
2022-08-18T14:29:55.215Z,97850.25
2022-08-18T14:32:29.543Z,97799.25
2022-08-18T14:35:33.432Z,97765.31
2022-08-18T14:37:48.670Z,97777.63
2022-08-18T14:40:16.769Z,97805.03
2022-08-18T14:42:54.024Z,97774.00
2022-08-18T14:45:31.715Z,97835.59
2022-08-18T14:48:07.502Z,97779.06
2022-08-18T14:50:39.860Z,97808.09
2022-08-18T14:53:06.550Z,97757.44
2022-08-18T14:55:34.216Z,97830.06
2022-08-18T14:58:02.842Z,97833.41
2022-08-18T15:00:30.153Z,97747.19
2022-08-18T15:02:59.773Z,97756.81
2022-08-18T15:05:27.731Z,97770.75
2022-08-18T15:07:56.087Z,97798.31
2022-08-18T15:10:28.035Z,97803.34
2022-08-18T15:12:55.461Z,97785.84
2022-08-18T15:15:22.469Z,97843.75
2022-08-18T15:17:52.431Z,97791.91
2022-08-18T15:20:28.685Z,97753.22
2022-08-18T15:23:00.743Z,97842.47
2022-08-18T15:25:28.262Z,97847.56
2022-08-18T15:27:54.794Z,97804.56
2022-08-18T15:30:21.789Z,97786.28
2022-08-18T15:32:50.110Z,97826.81
2022-08-18T15:35:19.384Z,97759.25
2022-08-18T15:37:48.120Z,97814.47
2022-08-18T15:40:35.948Z,97790.53
2022-08-18T15:43:09.816Z,97774.59
2022-08-18T15:45:43.022Z,97850.38
2022-08-18T15:48:19.959Z,97846.00
2022-08-18T15:50:51.141Z,97732.75
2022-08-18T15:53:24.131Z,97841.31
2022-08-18T15:55:51.129Z,97790.97
2022-08-18T15:58:18.227Z,97802.03
2022-08-18T16:00:50.470Z,97809.69
2022-08-18T16:03:18.419Z,97851.63
2022-08-18T16:05:51.581Z,97837.31
2022-08-18T16:08:22.299Z,97828.81
2022-08-18T16:10:49.315Z,97838.47
2022-08-18T16:13:16.136Z,97783.41
2022-08-18T16:15:44.789Z,97746.03
2022-08-18T16:18:12.280Z,97737.66
2022-08-18T16:20:39.091Z,97756.66
2022-08-18T16:23:05.886Z,97796.88
2022-08-18T16:25:33.028Z,97794.06
2022-08-18T16:28:00.674Z,97827.91
2022-08-18T16:30:29.017Z,97827.41
2022-08-18T16:32:59.472Z,97748.44
2022-08-18T16:35:26.018Z,97755.41
2022-08-18T16:37:52.855Z,97789.31
2022-08-18T16:40:20.544Z,97783.91
2022-08-18T16:42:48.055Z,97813.88
2022-08-18T16:45:21.017Z,97775.00
2022-08-18T16:47:47.567Z,97752.06
2022-08-18T16:50:16.920Z,97811.31
2022-08-18T16:52:44.244Z,97759.00
2022-08-18T16:55:12.033Z,97807.31
2022-08-18T16:57:53.362Z,97761.44
2022-08-18T17:00:24.338Z,97702.28
2022-08-18T17:02:50.995Z,97765.53
2022-08-18T17:05:17.930Z,97663.38
2022-08-18T17:07:47.609Z,97713.78
2022-08-18T17:10:14.466Z,97742.94
2022-08-18T17:12:41.030Z,97745.72
2022-08-18T17:15:08.379Z,97769.41
2022-08-18T17:17:34.917Z,97757.06
2022-08-18T17:20:01.636Z,97741.53
2022-08-18T17:22:33.686Z,97774.22
2022-08-18T17:25:01.946Z,97782.22
2022-08-18T17:27:37.563Z,97733.97
2022-08-18T17:30:13.444Z,97821.94
2022-08-18T17:32:53.104Z,97764.69
2022-08-18T17:35:40.007Z,97816.63
2022-08-18T17:38:36.013Z,97828.50
2022-08-18T17:41:04.486Z,97830.03
2022-08-18T17:43:34.496Z,97841.13
2022-08-18T17:46:18.820Z,97795.53
2022-08-18T17:49:02.620Z,97847.84
2022-08-18T17:51:36.785Z,97840.22
2022-08-18T17:54:27.657Z,97804.44
2022-08-18T17:57:01.202Z,97838.47
2022-08-18T17:59:45.657Z,97802.00
2022-08-18T18:02:29.346Z,97850.44
2022-08-18T18:05:01.853Z,97779.06
2022-08-18T18:07:33.923Z,97840.38
2022-08-18T18:10:13.086Z,97831.00
2022-08-18T18:12:40.879Z,97836.00
2022-08-18T18:15:11.571Z,97783.59
2022-08-18T18:17:41.105Z,97851.38
2022-08-18T18:20:18.149Z,97858.84
2022-08-18T18:22:45.250Z,97857.97
2022-08-18T18:25:28.427Z,97822.03
2022-08-18T18:28:01.105Z,97777.03
2022-08-18T18:30:30.486Z,97850.19
2022-08-18T18:33:04.467Z,97852.94
2022-08-18T18:35:53.244Z,97783.06
2022-08-18T18:38:38.279Z,97854.91
2022-08-18T18:41:19.799Z,97850.34
2022-08-18T18:43:48.525Z,97871.91
2022-08-18T18:46:24.717Z,97853.94
2022-08-18T18:49:03.738Z,97862.00
2022-08-18T18:52:00.535Z,97777.03
2022-08-18T18:54:50.790Z,97857.22
2022-08-18T18:57:26.648Z,97854.53
2022-08-18T19:00:08.557Z,97859.38
2022-08-18T19:03:01.092Z,97841.72
2022-08-18T19:05:33.646Z,97856.75
2022-08-18T19:08:21.951Z,97857.31
2022-08-18T19:10:54.538Z,97821.38
2022-08-18T19:13:33.054Z,97820.56
2022-08-18T19:16:27.551Z,97819.75
2022-08-18T19:19:37.624Z,97860.84
2022-08-18T19:22:03.330Z,97814.41
2022-08-18T19:24:37.469Z,97868.34
2022-08-18T19:27:04.686Z,97872.38
2022-08-18T19:29:39.821Z,97874.78
2022-08-18T19:32:17.769Z,97875.56
2022-08-18T19:34:52.522Z,97882.31
2022-08-18T19:37:43.177Z,97812.28
2022-08-18T19:40:24.133Z,97835.34
2022-08-18T19:43:06.980Z,97849.81
2022-08-18T19:45:52.783Z,97873.19
2022-08-18T19:48:28.569Z,97876.94
2022-08-18T19:51:02.904Z,97822.44
2022-08-18T19:53:58.112Z,97872.38
2022-08-18T19:56:51.843Z,97869.16
2022-08-18T19:59:44.680Z,97861.88
2022-08-18T20:02:47.484Z,97801.78
2022-08-18T20:05:27.104Z,97802.31
2022-08-18T20:08:05.774Z,97854.38
2022-08-18T20:10:52.684Z,97857.06
2022-08-18T20:13:32.778Z,97779.50
2022-08-18T20:16:02.473Z,97846.06
2022-08-18T20:18:32.538Z,97836.41
2022-08-18T20:21:11.331Z,97853.03
2022-08-18T20:23:56.370Z,97843.09
2022-08-18T20:26:49.754Z,97830.50
2022-08-18T20:29:19.723Z,97836.94
2022-08-18T20:31:49.332Z,97836.41
2022-08-18T20:34:21.669Z,97793.13
2022-08-18T20:36:50.490Z,97730.38
2022-08-18T20:39:42.271Z,97809.03
2022-08-18T20:42:21.325Z,97802.88
2022-08-18T20:44:47.938Z,97802.00
2022-08-18T20:47:39.487Z,97804.44
2022-08-18T20:50:30.596Z,97804.16
2022-08-18T20:53:09.330Z,97802.25
2022-08-18T20:56:31.571Z,97769.25
2022-08-18T20:58:56.684Z,97769.81
2022-08-18T21:01:26.858Z,97813.59
2022-08-18T21:03:53.601Z,97803.97
2022-08-18T21:06:31.928Z,97779.25
2022-08-18T21:08:58.545Z,97811.19
2022-08-18T21:11:36.142Z,97811.72
2022-08-18T21:14:03.714Z,97787.25
2022-08-18T21:16:38.195Z,97836.94
2022-08-18T21:19:20.399Z,97838.53
2022-08-18T21:21:51.790Z,97835.00
2022-08-18T21:24:34.235Z,97840.63
2022-08-18T21:27:25.429Z,97884.13
2022-08-18T21:29:56.481Z,97824.16
2022-08-18T21:32:34.701Z,97815.56
2022-08-18T21:35:04.986Z,97841.91
2022-08-18T21:37:33.140Z,97856.16
2022-08-18T21:40:03.231Z,97828.75
2022-08-18T21:42:41.968Z,97899.69
2022-08-18T21:45:21.886Z,97891.34
2022-08-18T21:47:58.136Z,97874.38
2022-08-18T21:50:27.934Z,97863.91
2022-08-18T21:52:54.703Z,97897.13
2022-08-18T21:55:25.243Z,97886.66
2022-08-18T21:58:10.049Z,97884.47
2022-08-18T22:00:40.134Z,97866.72
2022-08-18T22:03:11.694Z,97882.84
2022-08-18T22:05:58.142Z,97865.91
2022-08-18T22:08:29.751Z,97846.09
2022-08-18T22:11:09.383Z,97834.06
2022-08-18T22:13:49.676Z,97884.66
2022-08-18T22:16:32.158Z,97876.13
2022-08-18T22:19:09.826Z,97833.72
2022-08-18T22:21:55.121Z,97868.09
2022-08-18T22:24:29.734Z,97752.22
2022-08-18T22:27:02.585Z,97892.16
2022-08-18T22:29:57.777Z,97891.88
2022-08-18T22:32:24.566Z,97835.22
2022-08-18T22:34:51.450Z,97831.16
2022-08-18T22:37:22.500Z,97883.31
2022-08-18T22:39:59.753Z,97886.00
2022-08-18T22:42:29.438Z,97882.28
2022-08-18T22:45:00.137Z,97826.34
2022-08-18T22:47:29.566Z,97801.38
2022-08-18T22:49:56.511Z,97811.25
2022-08-18T22:52:30.164Z,97825.75
2022-08-18T22:54:58.991Z,97861.22
2022-08-18T22:57:28.915Z,97812.88
2022-08-18T22:59:57.657Z,97843.53
2022-08-18T23:02:25.446Z,97812.59
2022-08-18T23:04:52.033Z,97852.09
2022-08-18T23:07:18.640Z,97811.25
2022-08-18T23:09:45.242Z,97808.53
2022-08-18T23:12:12.670Z,97862.28
2022-08-18T23:14:40.889Z,97832.69
2022-08-18T23:17:07.615Z,97816.56
2022-08-18T23:19:34.464Z,97806.38
2022-08-18T23:22:02.632Z,97859.84
2022-08-18T23:24:29.484Z,97822.78
2022-08-18T23:26:56.431Z,97805.84
2022-08-18T23:29:23.869Z,97864.38
2022-08-18T23:31:51.517Z,97826.19
2022-08-18T23:34:20.163Z,97803.91
2022-08-18T23:36:53.784Z,97807.69
2022-08-18T23:39:20.416Z,97874.00
2022-08-18T23:41:46.984Z,97829.13
2022-08-18T23:44:15.733Z,97812.75
2022-08-18T23:46:43.175Z,97819.75
2022-08-18T23:49:12.086Z,97831.25
2022-08-18T23:51:43.427Z,97816.66
2022-08-18T23:54:15.067Z,97869.03
2022-08-18T23:56:41.757Z,97841.69
2022-08-18T23:59:08.937Z,97812.66
